sensor_id;sensor_type;location;lat;lon;timestamp;pressure;altitude;pressure_sealevel;temperature;humidity
25080;BME280;13071;48.868;9.996;2023-03-18T00:01:10;96085.03;;;8.50;76.92
25080;BME280;13071;48.868;9.996;2023-03-18T00:03:36;96090.13;;;8.52;76.48
25080;BME280;13071;48.868;9.996;2023-03-18T00:06:05;96083.59;;;8.53;76.00
25080;BME280;13071;48.868;9.996;2023-03-18T00:08:33;96089.31;;;8.51;75.92
25080;BME280;13071;48.868;9.996;2023-03-18T00:10:59;96085.97;;;8.54;75.45
25080;BME280;13071;48.868;9.996;2023-03-18T00:13:26;96089.84;;;8.45;75.33
25080;BME280;13071;48.868;9.996;2023-03-18T00:15:53;96101.47;;;8.37;76.19
25080;BME280;13071;48.868;9.996;2023-03-18T00:18:22;96098.50;;;8.30;76.22
25080;BME280;13071;48.868;9.996;2023-03-18T00:20:48;96094.41;;;8.23;76.49
25080;BME280;13071;48.868;9.996;2023-03-18T00:23:15;96091.91;;;8.18;76.46
25080;BME280;13071;48.868;9.996;2023-03-18T00:25:45;96096.16;;;8.19;76.38
25080;BME280;13071;48.868;9.996;2023-03-18T00:28:12;96098.06;;;8.19;75.95
25080;BME280;13071;48.868;9.996;2023-03-18T00:30:40;96097.44;;;8.22;75.88
25080;BME280;13071;48.868;9.996;2023-03-18T00:33:07;96102.03;;;8.21;75.95
25080;BME280;13071;48.868;9.996;2023-03-18T00:35:35;96104.06;;;8.24;75.40
25080;BME280;13071;48.868;9.996;2023-03-18T00:38:04;96110.78;;;8.18;75.41
25080;BME280;13071;48.868;9.996;2023-03-18T00:40:33;96104.00;;;8.12;75.79
25080;BME280;13071;48.868;9.996;2023-03-18T00:43:17;96106.75;;;8.04;76.49
25080;BME280;13071;48.868;9.996;2023-03-18T00:45:47;96117.72;;;7.99;77.01
25080;BME280;13071;48.868;9.996;2023-03-18T00:48:15;96109.03;;;7.93;76.93
25080;BME280;13071;48.868;9.996;2023-03-18T00:50:43;96112.03;;;7.92;76.77
25080;BME280;13071;48.868;9.996;2023-03-18T00:53:10;96112.34;;;7.90;76.93
25080;BME280;13071;48.868;9.996;2023-03-18T00:55:37;96105.41;;;7.89;77.06
25080;BME280;13071;48.868;9.996;2023-03-18T00:58:03;96105.09;;;7.82;76.81
25080;BME280;13071;48.868;9.996;2023-03-18T01:00:30;96114.16;;;7.77;77.39
25080;BME280;13071;48.868;9.996;2023-03-18T01:02:57;96115.75;;;7.78;77.17
25080;BME280;13071;48.868;9.996;2023-03-18T01:05:23;96110.06;;;7.71;77.77
25080;BME280;13071;48.868;9.996;2023-03-18T01:07:51;96116.72;;;7.65;77.84
25080;BME280;13071;48.868;9.996;2023-03-18T01:10:18;96108.03;;;7.60;78.00
25080;BME280;13071;48.868;9.996;2023-03-18T01:12:45;96110.41;;;7.61;77.98
25080;BME280;13071;48.868;9.996;2023-03-18T01:15:15;96106.75;;;7.66;78.56
25080;BME280;13071;48.868;9.996;2023-03-18T01:17:42;96107.84;;;7.65;78.45
25080;BME280;13071;48.868;9.996;2023-03-18T01:20:10;96110.09;;;7.63;77.86
25080;BME280;13071;48.868;9.996;2023-03-18T01:22:37;96113.91;;;7.62;78.08
25080;BME280;13071;48.868;9.996;2023-03-18T01:25:08;96107.09;;;7.64;78.07
25080;BME280;13071;48.868;9.996;2023-03-18T01:27:36;96107.28;;;7.51;78.70
25080;BME280;13071;48.868;9.996;2023-03-18T01:30:04;96105.06;;;7.53;78.23
25080;BME280;13071;48.868;9.996;2023-03-18T01:32:31;96104.59;;;7.51;78.18
25080;BME280;13071;48.868;9.996;2023-03-18T01:34:58;96104.13;;;7.49;78.46
25080;BME280;13071;48.868;9.996;2023-03-18T01:37:25;96111.78;;;7.38;78.71
25080;BME280;13071;48.868;9.996;2023-03-18T01:39:51;96109.75;;;7.35;78.85
25080;BME280;13071;48.868;9.996;2023-03-18T01:42:20;96119.09;;;7.29;79.20
25080;BME280;13071;48.868;9.996;2023-03-18T01:44:47;96117.66;;;7.23;79.98
25080;BME280;13071;48.868;9.996;2023-03-18T01:47:13;96122.56;;;7.21;80.47
25080;BME280;13071;48.868;9.996;2023-03-18T01:49:44;96116.59;;;7.15;80.34
25080;BME280;13071;48.868;9.996;2023-03-18T01:52:16;96117.22;;;7.12;81.28
25080;BME280;13071;48.868;9.996;2023-03-18T01:54:45;96119.28;;;7.07;81.58
25080;BME280;13071;48.868;9.996;2023-03-18T01:57:14;96117.72;;;6.97;81.70
25080;BME280;13071;48.868;9.996;2023-03-18T01:59:45;96120.25;;;6.93;82.20
25080;BME280;13071;48.868;9.996;2023-03-18T02:02:15;96119.47;;;6.93;82.25
25080;BME280;13071;48.868;9.996;2023-03-18T02:04:44;96117.41;;;6.90;82.51
25080;BME280;13071;48.868;9.996;2023-03-18T02:07:14;96113.31;;;6.84;82.31
25080;BME280;13071;48.868;9.996;2023-03-18T02:09:40;96120.09;;;6.90;82.29
25080;BME280;13071;48.868;9.996;2023-03-18T02:12:08;96120.28;;;6.85;82.36
25080;BME280;13071;48.868;9.996;2023-03-18T02:14:36;96119.63;;;6.88;82.85
25080;BME280;13071;48.868;9.996;2023-03-18T02:17:07;96116.59;;;6.98;82.71
25080;BME280;13071;48.868;9.996;2023-03-18T02:19:46;96118.34;;;7.03;82.02
25080;BME280;13071;48.868;9.996;2023-03-18T02:22:22;96121.03;;;7.03;81.33
25080;BME280;13071;48.868;9.996;2023-03-18T02:24:57;96114.41;;;7.00;82.20
25080;BME280;13071;48.868;9.996;2023-03-18T02:27:29;96113.44;;;6.96;82.72
25080;BME280;13071;48.868;9.996;2023-03-18T02:30:00;96118.53;;;6.89;82.13
25080;BME280;13071;48.868;9.996;2023-03-18T02:32:30;96118.34;;;6.94;81.91
25080;BME280;13071;48.868;9.996;2023-03-18T02:35:00;96117.09;;;7.00;81.43
25080;BME280;13071;48.868;9.996;2023-03-18T02:37:29;96114.84;;;7.02;81.55
25080;BME280;13071;48.868;9.996;2023-03-18T02:40:11;96112.47;;;7.09;81.09
25080;BME280;13071;48.868;9.996;2023-03-18T02:42:39;96118.00;;;7.13;80.96
25080;BME280;13071;48.868;9.996;2023-03-18T02:45:11;96127.00;;;7.17;80.14
25080;BME280;13071;48.868;9.996;2023-03-18T02:47:39;96117.03;;;7.26;80.09
25080;BME280;13071;48.868;9.996;2023-03-18T02:50:08;96122.22;;;7.31;79.65
25080;BME280;13071;48.868;9.996;2023-03-18T02:52:35;96116.06;;;7.30;79.43
25080;BME280;13071;48.868;9.996;2023-03-18T02:55:03;96125.25;;;7.29;79.08
25080;BME280;13071;48.868;9.996;2023-03-18T02:57:30;96123.81;;;7.32;79.01
25080;BME280;13071;48.868;9.996;2023-03-18T02:59:58;96133.91;;;7.52;77.89
25080;BME280;13071;48.868;9.996;2023-03-18T03:02:24;96135.03;;;7.43;78.28
25080;BME280;13071;48.868;9.996;2023-03-18T03:04:51;96129.59;;;7.60;77.33
25080;BME280;13071;48.868;9.996;2023-03-18T03:07:17;96128.09;;;7.33;77.38
25080;BME280;13071;48.868;9.996;2023-03-18T03:09:44;96126.56;;;7.15;78.25
25080;BME280;13071;48.868;9.996;2023-03-18T03:12:11;96133.03;;;7.22;79.12
25080;BME280;13071;48.868;9.996;2023-03-18T03:14:37;96145.22;;;7.28;78.03
25080;BME280;13071;48.868;9.996;2023-03-18T03:17:06;96139.34;;;7.26;78.67
25080;BME280;13071;48.868;9.996;2023-03-18T03:19:33;96140.28;;;7.30;78.65
25080;BME280;13071;48.868;9.996;2023-03-18T03:22:00;96143.75;;;7.31;79.33
25080;BME280;13071;48.868;9.996;2023-03-18T03:24:27;96151.84;;;7.31;79.51
25080;BME280;13071;48.868;9.996;2023-03-18T03:26:54;96149.63;;;7.33;79.32
25080;BME280;13071;48.868;9.996;2023-03-18T03:29:21;96153.13;;;7.33;79.74
25080;BME280;13071;48.868;9.996;2023-03-18T03:31:48;96153.13;;;7.33;79.66
25080;BME280;13071;48.868;9.996;2023-03-18T03:34:15;96158.34;;;7.30;80.48
25080;BME280;13071;48.868;9.996;2023-03-18T03:36:42;96152.50;;;7.28;80.50
25080;BME280;13071;48.868;9.996;2023-03-18T03:39:09;96150.91;;;7.27;80.20
25080;BME280;13071;48.868;9.996;2023-03-18T03:41:36;96155.03;;;7.24;79.39
25080;BME280;13071;48.868;9.996;2023-03-18T03:44:03;96154.38;;;7.27;79.72
25080;BME280;13071;48.868;9.996;2023-03-18T03:46:30;96163.25;;;7.28;79.07
25080;BME280;13071;48.868;9.996;2023-03-18T03:48:57;96163.28;;;6.50;83.96
25080;BME280;13071;48.868;9.996;2023-03-18T03:51:25;96164.88;;;6.69;81.93
25080;BME280;13071;48.868;9.996;2023-03-18T03:53:52;96160.91;;;6.66;82.74
25080;BME280;13071;48.868;9.996;2023-03-18T03:56:19;96165.19;;;6.59;83.32
25080;BME280;13071;48.868;9.996;2023-03-18T03:58:46;96169.78;;;6.67;83.22
25080;BME280;13071;48.868;9.996;2023-03-18T04:01:13;96157.44;;;6.74;81.69
25080;BME280;13071;48.868;9.996;2023-03-18T04:03:39;96156.50;;;6.70;81.82
25080;BME280;13071;48.868;9.996;2023-03-18T04:06:06;96167.72;;;6.81;81.37
25080;BME280;13071;48.868;9.996;2023-03-18T04:08:34;96170.72;;;6.88;80.49
25080;BME280;13071;48.868;9.996;2023-03-18T04:11:01;96178.72;;;6.19;84.19
25080;BME280;13071;48.868;9.996;2023-03-18T04:13:28;96179.38;;;6.42;82.46
25080;BME280;13071;48.868;9.996;2023-03-18T04:15:55;96173.25;;;6.50;83.53
25080;BME280;13071;48.868;9.996;2023-03-18T04:18:21;96175.94;;;6.50;83.65
25080;BME280;13071;48.868;9.996;2023-03-18T04:20:48;96171.66;;;6.49;83.44
25080;BME280;13071;48.868;9.996;2023-03-18T04:23:15;96172.44;;;6.49;83.91
25080;BME280;13071;48.868;9.996;2023-03-18T04:25:43;96178.13;;;6.48;84.49
25080;BME280;13071;48.868;9.996;2023-03-18T04:28:09;96175.00;;;6.46;84.15
25080;BME280;13071;48.868;9.996;2023-03-18T04:30:36;96185.25;;;6.53;83.25
25080;BME280;13071;48.868;9.996;2023-03-18T04:33:03;96184.34;;;6.66;81.91
25080;BME280;13071;48.868;9.996;2023-03-18T04:35:29;96179.88;;;6.35;82.13
25080;BME280;13071;48.868;9.996;2023-03-18T04:37:56;96162.28;;;6.29;82.22
25080;BME280;13071;48.868;9.996;2023-03-18T04:40:23;96183.16;;;6.24;82.95
25080;BME280;13071;48.868;9.996;2023-03-18T04:42:51;96188.53;;;6.24;83.81
25080;BME280;13071;48.868;9.996;2023-03-18T04:45:17;96197.56;;;5.88;83.88
25080;BME280;13071;48.868;9.996;2023-03-18T04:47:44;96190.31;;;5.97;84.54
25080;BME280;13071;48.868;9.996;2023-03-18T04:50:12;96183.75;;;6.12;83.71
25080;BME280;13071;48.868;9.996;2023-03-18T04:52:40;96193.19;;;6.01;84.22
25080;BME280;13071;48.868;9.996;2023-03-18T04:55:08;96193.84;;;6.06;84.35
25080;BME280;13071;48.868;9.996;2023-03-18T04:57:35;96191.94;;;6.07;84.02
25080;BME280;13071;48.868;9.996;2023-03-18T05:00:06;96197.50;;;6.11;84.23
25080;BME280;13071;48.868;9.996;2023-03-18T05:02:35;96190.69;;;6.04;84.43
25080;BME280;13071;48.868;9.996;2023-03-18T05:05:02;96193.06;;;6.06;84.83
25080;BME280;13071;48.868;9.996;2023-03-18T05:07:29;96209.34;;;6.10;83.61
25080;BME280;13071;48.868;9.996;2023-03-18T05:09:56;96200.06;;;6.16;83.66
25080;BME280;13071;48.868;9.996;2023-03-18T05:12:23;96188.22;;;6.25;82.17
25080;BME280;13071;48.868;9.996;2023-03-18T05:14:51;96192.03;;;6.41;81.96
25080;BME280;13071;48.868;9.996;2023-03-18T05:17:19;96198.38;;;6.45;81.41
25080;BME280;13071;48.868;9.996;2023-03-18T05:19:47;96197.25;;;6.46;80.75
25080;BME280;13071;48.868;9.996;2023-03-18T05:22:15;96190.97;;;6.51;79.62
25080;BME280;13071;48.868;9.996;2023-03-18T05:24:43;96193.31;;;6.35;79.86
25080;BME280;13071;48.868;9.996;2023-03-18T05:27:11;96197.88;;;6.35;80.52
25080;BME280;13071;48.868;9.996;2023-03-18T05:29:38;96194.06;;;6.27;80.19
25080;BME280;13071;48.868;9.996;2023-03-18T05:32:07;96191.34;;;6.19;81.35
25080;BME280;13071;48.868;9.996;2023-03-18T05:34:36;96194.69;;;6.16;81.50
25080;BME280;13071;48.868;9.996;2023-03-18T05:37:03;96193.91;;;6.24;80.67
25080;BME280;13071;48.868;9.996;2023-03-18T05:39:30;96201.50;;;6.30;80.83
25080;BME280;13071;48.868;9.996;2023-03-18T05:41:57;96205.41;;;6.16;80.89
25080;BME280;13071;48.868;9.996;2023-03-18T05:44:25;96204.13;;;6.04;80.76
25080;BME280;13071;48.868;9.996;2023-03-18T05:46:52;96204.25;;;5.99;81.44
25080;BME280;13071;48.868;9.996;2023-03-18T05:49:19;96199.19;;;5.98;81.70
25080;BME280;13071;48.868;9.996;2023-03-18T05:51:47;96204.41;;;6.03;81.57
25080;BME280;13071;48.868;9.996;2023-03-18T05:54:15;96204.13;;;6.04;81.54
25080;BME280;13071;48.868;9.996;2023-03-18T05:56:42;96201.44;;;6.04;81.10
25080;BME280;13071;48.868;9.996;2023-03-18T05:59:10;96205.88;;;6.09;81.50
25080;BME280;13071;48.868;9.996;2023-03-18T06:01:37;96207.75;;;6.08;81.70
25080;BME280;13071;48.868;9.996;2023-03-18T06:04:04;96203.69;;;6.20;80.57
25080;BME280;13071;48.868;9.996;2023-03-18T06:06:31;96206.22;;;6.25;81.13
25080;BME280;13071;48.868;9.996;2023-03-18T06:09:01;96206.09;;;6.30;81.09
25080;BME280;13071;48.868;9.996;2023-03-18T06:11:28;96218.44;;;6.39;80.77
25080;BME280;13071;48.868;9.996;2023-03-18T06:13:55;96211.69;;;6.50;80.14
25080;BME280;13071;48.868;9.996;2023-03-18T06:16:22;96217.38;;;6.58;80.41
25080;BME280;13071;48.868;9.996;2023-03-18T06:18:50;96212.00;;;6.58;79.93
25080;BME280;13071;48.868;9.996;2023-03-18T06:21:16;96211.38;;;6.61;79.87
25080;BME280;13071;48.868;9.996;2023-03-18T06:23:43;96209.31;;;6.66;80.07
25080;BME280;13071;48.868;9.996;2023-03-18T06:26:11;96205.72;;;6.71;79.70
25080;BME280;13071;48.868;9.996;2023-03-18T06:28:37;96214.06;;;6.78;79.89
25080;BME280;13071;48.868;9.996;2023-03-18T06:31:04;96219.47;;;6.86;79.03
25080;BME280;13071;48.868;9.996;2023-03-18T06:33:31;96210.94;;;6.93;79.61
25080;BME280;13071;48.868;9.996;2023-03-18T06:35:57;96222.16;;;7.04;79.99
25080;BME280;13071;48.868;9.996;2023-03-18T06:38:26;96208.53;;;6.91;79.29
25080;BME280;13071;48.868;9.996;2023-03-18T06:40:53;96215.03;;;6.99;79.33
25080;BME280;13071;48.868;9.996;2023-03-18T06:43:22;96213.47;;;7.15;79.02
25080;BME280;13071;48.868;9.996;2023-03-18T06:45:49;96214.88;;;7.30;78.73
25080;BME280;13071;48.868;9.996;2023-03-18T06:48:16;96218.97;;;7.45;78.28
25080;BME280;13071;48.868;9.996;2023-03-18T06:50:43;96214.06;;;7.47;78.76
25080;BME280;13071;48.868;9.996;2023-03-18T06:53:11;96220.69;;;7.58;78.00
25080;BME280;13071;48.868;9.996;2023-03-18T06:55:38;96220.63;;;7.75;77.78
25080;BME280;13071;48.868;9.996;2023-03-18T06:58:05;96213.66;;;7.82;77.58
25080;BME280;13071;48.868;9.996;2023-03-18T07:00:33;96223.78;;;7.94;76.93
25080;BME280;13071;48.868;9.996;2023-03-18T07:03:00;96229.63;;;7.96;76.96
25080;BME280;13071;48.868;9.996;2023-03-18T07:05:26;96228.81;;;7.96;77.88
25080;BME280;13071;48.868;9.996;2023-03-18T07:07:53;96225.84;;;7.89;78.89
25080;BME280;13071;48.868;9.996;2023-03-18T07:10:23;96230.22;;;8.02;79.98
25080;BME280;13071;48.868;9.996;2023-03-18T07:12:50;96227.97;;;8.12;80.37
25080;BME280;13071;48.868;9.996;2023-03-18T07:15:17;96233.47;;;8.24;80.14
25080;BME280;13071;48.868;9.996;2023-03-18T07:17:47;96229.78;;;8.29;79.42
25080;BME280;13071;48.868;9.996;2023-03-18T07:20:15;96229.31;;;8.36;79.94
25080;BME280;13071;48.868;9.996;2023-03-18T07:22:42;96234.81;;;8.48;80.00
25080;BME280;13071;48.868;9.996;2023-03-18T07:25:09;96237.72;;;8.63;81.22
25080;BME280;13071;48.868;9.996;2023-03-18T07:27:37;96238.13;;;8.83;81.40
25080;BME280;13071;48.868;9.996;2023-03-18T07:30:05;96242.13;;;8.97;81.22
25080;BME280;13071;48.868;9.996;2023-03-18T07:32:33;96243.38;;;9.21;80.79
25080;BME280;13071;48.868;9.996;2023-03-18T07:35:02;96244.56;;;9.32;82.82
25080;BME280;13071;48.868;9.996;2023-03-18T07:37:29;96241.59;;;9.45;81.86
25080;BME280;13071;48.868;9.996;2023-03-18T07:39:56;96242.16;;;9.51;81.87
25080;BME280;13071;48.868;9.996;2023-03-18T07:42:23;96247.28;;;9.32;82.25
25080;BME280;13071;48.868;9.996;2023-03-18T07:44:49;96254.81;;;9.38;80.88
25080;BME280;13071;48.868;9.996;2023-03-18T07:47:16;96255.47;;;8.94;81.01
25080;BME280;13071;48.868;9.996;2023-03-18T07:49:45;96258.44;;;9.42;79.46
25080;BME280;13071;48.868;9.996;2023-03-18T07:52:13;96241.47;;;9.42;80.97
25080;BME280;13071;48.868;9.996;2023-03-18T07:54:39;96250.72;;;9.53;82.18
25080;BME280;13071;48.868;9.996;2023-03-18T07:57:06;96245.81;;;9.67;82.25
25080;BME280;13071;48.868;9.996;2023-03-18T07:59:34;96249.09;;;9.73;82.96
25080;BME280;13071;48.868;9.996;2023-03-18T08:02:01;96248.31;;;10.05;82.36
25080;BME280;13071;48.868;9.996;2023-03-18T08:04:29;96252.19;;;10.28;81.44
25080;BME280;13071;48.868;9.996;2023-03-18T08:06:56;96247.34;;;10.58;80.53
25080;BME280;13071;48.868;9.996;2023-03-18T08:09:24;96251.06;;;10.78;79.81
25080;BME280;13071;48.868;9.996;2023-03-18T08:11:52;96252.84;;;10.98;79.04
25080;BME280;13071;48.868;9.996;2023-03-18T08:14:18;96251.69;;;11.11;79.99
25080;BME280;13071;48.868;9.996;2023-03-18T08:16:45;96256.94;;;11.32;78.25
25080;BME280;13071;48.868;9.996;2023-03-18T08:19:12;96263.25;;;11.36;76.51
25080;BME280;13071;48.868;9.996;2023-03-18T08:21:38;96256.44;;;11.54;73.31
25080;BME280;13071;48.868;9.996;2023-03-18T08:24:05;96253.22;;;11.64;69.93
25080;BME280;13071;48.868;9.996;2023-03-18T08:26:34;96258.16;;;11.75;65.11
25080;BME280;13071;48.868;9.996;2023-03-18T08:29:01;96246.50;;;12.02;64.58
25080;BME280;13071;48.868;9.996;2023-03-18T08:31:27;96255.97;;;12.08;63.78
25080;BME280;13071;48.868;9.996;2023-03-18T08:33:55;96248.19;;;12.22;63.01
25080;BME280;13071;48.868;9.996;2023-03-18T08:36:24;96242.78;;;12.22;62.18
25080;BME280;13071;48.868;9.996;2023-03-18T08:38:51;96254.25;;;12.31;61.20
25080;BME280;13071;48.868;9.996;2023-03-18T08:41:17;96255.38;;;12.46;59.60
25080;BME280;13071;48.868;9.996;2023-03-18T08:43:46;96257.03;;;12.50;60.32
25080;BME280;13071;48.868;9.996;2023-03-18T08:46:13;96265.72;;;12.56;62.35
25080;BME280;13071;48.868;9.996;2023-03-18T08:48:39;96269.03;;;12.65;61.13
25080;BME280;13071;48.868;9.996;2023-03-18T08:51:07;96271.81;;;12.84;61.95
25080;BME280;13071;48.868;9.996;2023-03-18T08:53:33;96249.94;;;12.77;58.46
25080;BME280;13071;48.868;9.996;2023-03-18T08:56:01;96253.88;;;12.64;61.29
25080;BME280;13071;48.868;9.996;2023-03-18T08:58:27;96255.97;;;12.71;57.41
25080;BME280;13071;48.868;9.996;2023-03-18T09:00:55;96248.50;;;12.83;56.19
25080;BME280;13071;48.868;9.996;2023-03-18T09:03:22;96253.03;;;12.95;57.77
25080;BME280;13071;48.868;9.996;2023-03-18T09:05:49;96252.06;;;13.03;57.48
25080;BME280;13071;48.868;9.996;2023-03-18T09:08:17;96255.91;;;13.18;55.99
25080;BME280;13071;48.868;9.996;2023-03-18T09:10:43;96253.84;;;13.11;56.59
25080;BME280;13071;48.868;9.996;2023-03-18T09:13:10;96248.25;;;13.23;56.05
25080;BME280;13071;48.868;9.996;2023-03-18T09:15:37;96249.00;;;13.20;55.76
25080;BME280;13071;48.868;9.996;2023-03-18T09:18:05;96251.25;;;13.18;55.82
25080;BME280;13071;48.868;9.996;2023-03-18T09:20:32;96252.78;;;13.35;56.11
25080;BME280;13071;48.868;9.996;2023-03-18T09:22:59;96256.31;;;13.55;54.76
25080;BME280;13071;48.868;9.996;2023-03-18T09:25:26;96246.28;;;13.59;54.63
25080;BME280;13071;48.868;9.996;2023-03-18T09:27:53;96243.22;;;13.60;54.12
25080;BME280;13071;48.868;9.996;2023-03-18T09:30:20;96244.66;;;13.54;55.18
25080;BME280;13071;48.868;9.996;2023-03-18T09:32:46;96233.41;;;13.56;55.48
25080;BME280;13071;48.868;9.996;2023-03-18T09:35:14;96231.06;;;13.35;54.21
25080;BME280;13071;48.868;9.996;2023-03-18T09:37:41;96241.66;;;13.59;55.19
25080;BME280;13071;48.868;9.996;2023-03-18T09:40:14;96240.91;;;13.62;54.33
25080;BME280;13071;48.868;9.996;2023-03-18T09:42:58;96238.13;;;13.39;55.34
25080;BME280;13071;48.868;9.996;2023-03-18T09:45:32;96232.13;;;13.50;53.71
25080;BME280;13071;48.868;9.996;2023-03-18T09:48:33;96222.94;;;13.77;52.82
25080;BME280;13071;48.868;9.996;2023-03-18T09:51:15;96223.03;;;13.80;52.66
25080;BME280;13071;48.868;9.996;2023-03-18T09:53:51;96218.66;;;14.18;52.94
25080;BME280;13071;48.868;9.996;2023-03-18T09:56:21;96219.47;;;14.22;52.37
25080;BME280;13071;48.868;9.996;2023-03-18T09:58:54;96212.84;;;14.19;53.38
25080;BME280;13071;48.868;9.996;2023-03-18T10:01:22;96219.22;;;14.50;51.30
25080;BME280;13071;48.868;9.996;2023-03-18T10:03:56;96215.63;;;14.23;49.99
25080;BME280;13071;48.868;9.996;2023-03-18T10:06:26;96215.81;;;14.34;51.68
25080;BME280;13071;48.868;9.996;2023-03-18T10:08:59;96213.66;;;14.43;52.19
25080;BME280;13071;48.868;9.996;2023-03-18T10:11:31;96210.63;;;14.25;52.00
25080;BME280;13071;48.868;9.996;2023-03-18T10:14:17;96206.47;;;13.89;53.71
25080;BME280;13071;48.868;9.996;2023-03-18T10:16:52;96208.53;;;14.18;51.73
25080;BME280;13071;48.868;9.996;2023-03-18T10:19:20;96210.38;;;14.11;49.82
25080;BME280;13071;48.868;9.996;2023-03-18T10:21:58;96205.31;;;14.36;50.36
25080;BME280;13071;48.868;9.996;2023-03-18T10:24:33;96213.03;;;14.30;49.23
25080;BME280;13071;48.868;9.996;2023-03-18T10:27:08;96207.63;;;14.34;49.60
25080;BME280;13071;48.868;9.996;2023-03-18T10:29:42;96221.38;;;14.41;49.15
25080;BME280;13071;48.868;9.996;2023-03-18T10:32:22;96218.59;;;14.14;52.30
25080;BME280;13071;48.868;9.996;2023-03-18T10:35:01;96216.53;;;14.08;52.04
25080;BME280;13071;48.868;9.996;2023-03-18T10:37:47;96215.09;;;14.37;51.41
25080;BME280;13071;48.868;9.996;2023-03-18T10:40:18;96206.63;;;14.19;52.89
25080;BME280;13071;48.868;9.996;2023-03-18T10:42:47;96214.66;;;14.35;52.60
25080;BME280;13071;48.868;9.996;2023-03-18T10:45:21;96212.97;;;14.04;52.01
25080;BME280;13071;48.868;9.996;2023-03-18T10:47:55;96207.81;;;13.99;51.29
25080;BME280;13071;48.868;9.996;2023-03-18T10:50:29;96197.97;;;14.13;52.60
25080;BME280;13071;48.868;9.996;2023-03-18T10:53:04;96198.31;;;14.57;52.34
25080;BME280;13071;48.868;9.996;2023-03-18T10:55:37;96198.00;;;14.62;50.94
25080;BME280;13071;48.868;9.996;2023-03-18T10:58:13;96191.19;;;14.26;51.21
25080;BME280;13071;48.868;9.996;2023-03-18T11:00:40;96184.72;;;14.12;52.66
25080;BME280;13071;48.868;9.996;2023-03-18T11:03:17;96183.41;;;14.48;51.28
25080;BME280;13071;48.868;9.996;2023-03-18T11:05:45;96178.69;;;14.71;52.60
25080;BME280;13071;48.868;9.996;2023-03-18T11:08:29;96179.19;;;15.06;52.19
25080;BME280;13071;48.868;9.996;2023-03-18T11:11:01;96176.00;;;15.31;49.05
25080;BME280;13071;48.868;9.996;2023-03-18T11:13:45;96174.16;;;15.08;50.32
25080;BME280;13071;48.868;9.996;2023-03-18T11:16:20;96173.41;;;15.11;49.77
25080;BME280;13071;48.868;9.996;2023-03-18T11:18:48;96175.78;;;15.13;50.97
25080;BME280;13071;48.868;9.996;2023-03-18T11:21:17;96169.72;;;15.27;52.33
25080;BME280;13071;48.868;9.996;2023-03-18T11:23:52;96175.63;;;14.76;52.13
25080;BME280;13071;48.868;9.996;2023-03-18T11:26:46;96173.97;;;14.94;51.93
25080;BME280;13071;48.868;9.996;2023-03-18T11:29:16;96167.13;;;15.07;51.48
25080;BME280;13071;48.868;9.996;2023-03-18T11:31:52;96161.25;;;15.05;49.74
25080;BME280;13071;48.868;9.996;2023-03-18T11:34:22;96160.78;;;15.00;52.59
25080;BME280;13071;48.868;9.996;2023-03-18T11:36:53;96164.69;;;14.99;52.79
25080;BME280;13071;48.868;9.996;2023-03-18T11:39:24;96152.00;;;15.43;51.84
25080;BME280;13071;48.868;9.996;2023-03-18T11:41:53;96151.25;;;15.46;51.31
25080;BME280;13071;48.868;9.996;2023-03-18T11:44:27;96142.09;;;15.62;52.36
25080;BME280;13071;48.868;9.996;2023-03-18T11:46:59;96145.16;;;15.57;50.20
25080;BME280;13071;48.868;9.996;2023-03-18T11:49:28;96145.25;;;15.64;50.13
25080;BME280;13071;48.868;9.996;2023-03-18T11:52:05;96141.84;;;15.74;50.78
25080;BME280;13071;48.868;9.996;2023-03-18T11:57:40;96132.22;;;15.87;49.98
25080;BME280;13071;48.868;9.996;2023-03-18T12:00:16;96133.75;;;15.84;50.43
25080;BME280;13071;48.868;9.996;2023-03-18T12:06:11;96127.09;;;15.82;47.30
25080;BME280;13071;48.868;9.996;2023-03-18T12:08:50;96130.56;;;15.79;47.44
25080;BME280;13071;48.868;9.996;2023-03-18T12:11:34;96130.78;;;16.00;47.95
25080;BME280;13071;48.868;9.996;2023-03-18T12:14:11;96132.19;;;16.27;47.78
25080;BME280;13071;48.868;9.996;2023-03-18T12:16:47;96128.69;;;16.30;48.78
25080;BME280;13071;48.868;9.996;2023-03-18T12:19:35;96133.34;;;16.26;46.23
25080;BME280;13071;48.868;9.996;2023-03-18T12:22:24;96121.84;;;16.03;45.24
25080;BME280;13071;48.868;9.996;2023-03-18T12:25:04;96125.06;;;16.16;47.04
25080;BME280;13071;48.868;9.996;2023-03-18T12:27:40;96116.41;;;16.03;48.29
25080;BME280;13071;48.868;9.996;2023-03-18T12:30:27;96113.91;;;15.87;47.82
25080;BME280;13071;48.868;9.996;2023-03-18T12:33:04;96108.72;;;16.19;47.52
25080;BME280;13071;48.868;9.996;2023-03-18T12:35:41;96105.84;;;16.02;47.62
25080;BME280;13071;48.868;9.996;2023-03-18T12:38:37;96106.97;;;15.97;45.12
25080;BME280;13071;48.868;9.996;2023-03-18T12:41:12;96102.06;;;16.13;46.51
25080;BME280;13071;48.868;9.996;2023-03-18T12:43:53;96101.38;;;16.30;46.39
25080;BME280;13071;48.868;9.996;2023-03-18T12:46:28;96100.59;;;16.30;44.72
25080;BME280;13071;48.868;9.996;2023-03-18T12:49:00;96099.72;;;16.19;45.50
25080;BME280;13071;48.868;9.996;2023-03-18T12:51:42;96078.03;;;15.89;46.84
25080;BME280;13071;48.868;9.996;2023-03-18T12:54:15;96086.19;;;15.82;47.14
25080;BME280;13071;48.868;9.996;2023-03-18T12:56:45;96085.06;;;15.86;46.00
25080;BME280;13071;48.868;9.996;2023-03-18T12:59:22;96083.25;;;16.05;48.04
25080;BME280;13071;48.868;9.996;2023-03-18T13:02:01;96081.75;;;16.11;46.15
25080;BME280;13071;48.868;9.996;2023-03-18T13:04:32;96084.88;;;16.13;45.27
25080;BME280;13071;48.868;9.996;2023-03-18T13:07:04;96091.34;;;15.94;47.78
25080;BME280;13071;48.868;9.996;2023-03-18T13:09:43;96084.00;;;16.02;49.94
25080;BME280;13071;48.868;9.996;2023-03-18T13:12:14;96077.84;;;16.12;47.17
25080;BME280;13071;48.868;9.996;2023-03-18T13:14:53;96077.16;;;16.22;46.07
25080;BME280;13071;48.868;9.996;2023-03-18T13:17:25;96088.00;;;16.15;46.35
25080;BME280;13071;48.868;9.996;2023-03-18T13:19:57;96084.56;;;16.21;47.25
25080;BME280;13071;48.868;9.996;2023-03-18T13:22:44;96079.25;;;16.46;47.03
25080;BME280;13071;48.868;9.996;2023-03-18T13:25:17;96082.00;;;16.46;47.08
25080;BME280;13071;48.868;9.996;2023-03-18T13:28:08;96071.19;;;16.64;48.88